createdAt,value
2022-10-09T00:01:22.054Z,5.10
2022-10-09T00:03:52.338Z,5.50
2022-10-09T00:06:22.511Z,5.25
2022-10-09T00:08:51.144Z,5.43
2022-10-09T00:11:24.096Z,5.55
2022-10-09T00:13:53.325Z,5.78
2022-10-09T00:16:23.139Z,5.95
2022-10-09T00:18:52.190Z,5.45
2022-10-09T00:21:22.668Z,5.40
2022-10-09T00:23:51.918Z,6.30
2022-10-09T00:26:21.846Z,5.85
2022-10-09T00:28:50.369Z,6.65
2022-10-09T00:31:19.122Z,7.53
2022-10-09T00:33:47.534Z,7.45
2022-10-09T00:36:17.660Z,8.00
2022-10-09T00:38:46.389Z,7.35
2022-10-09T00:41:17.257Z,6.80
2022-10-09T00:43:50.128Z,7.15
2022-10-09T00:46:25.774Z,7.15
2022-10-09T00:49:01.404Z,7.07
2022-10-09T00:51:30.866Z,7.07
2022-10-09T00:53:59.619Z,6.82
2022-10-09T00:56:28.512Z,6.47
2022-10-09T00:58:59.473Z,7.00
2022-10-09T01:01:28.005Z,6.22
2022-10-09T01:03:56.337Z,6.60
2022-10-09T01:06:31.995Z,6.65
2022-10-09T01:09:05.351Z,7.00
2022-10-09T01:11:42.538Z,6.43
2022-10-09T01:14:19.715Z,7.03
2022-10-09T01:16:54.812Z,6.63
2022-10-09T01:19:33.412Z,6.35
2022-10-09T01:22:14.390Z,6.97
2022-10-09T01:24:45.993Z,6.85
2022-10-09T01:27:18.499Z,6.28
2022-10-09T01:29:50.303Z,5.25
2022-10-09T01:32:21.630Z,5.70
2022-10-09T01:34:52.142Z,6.13
2022-10-09T01:37:22.189Z,5.85
2022-10-09T01:42:21.887Z,5.60
2022-10-09T01:44:50.196Z,5.47
2022-10-09T01:47:21.289Z,5.82
2022-10-09T01:49:55.684Z,6.15
2022-10-09T01:52:33.152Z,5.95
2022-10-09T01:55:13.994Z,6.32
2022-10-09T01:57:49.412Z,5.32
2022-10-09T02:00:17.615Z,5.88
2022-10-09T02:02:47.120Z,5.20
2022-10-09T02:05:19.748Z,5.57
2022-10-09T02:07:47.833Z,5.70
2022-10-09T02:10:17.477Z,6.18
2022-10-09T02:12:51.406Z,5.78
2022-10-09T02:15:21.967Z,6.43
2022-10-09T02:17:52.633Z,5.50
2022-10-09T02:20:26.315Z,6.25
2022-10-09T02:22:55.085Z,6.05
2022-10-09T02:25:23.107Z,6.07
2022-10-09T02:27:52.464Z,5.80
2022-10-09T02:30:22.787Z,5.65
2022-10-09T02:32:53.298Z,6.05
2022-10-09T02:35:21.722Z,5.10
2022-10-09T02:37:49.645Z,5.50
2022-10-09T02:40:17.752Z,5.70
2022-10-09T02:42:45.877Z,5.20
2022-10-09T02:45:15.355Z,5.50
2022-10-09T02:47:43.310Z,5.38
2022-10-09T02:50:11.482Z,5.60
2022-10-09T02:52:39.422Z,4.90
2022-10-09T02:55:07.821Z,6.00
2022-10-09T02:57:35.832Z,5.47
2022-10-09T03:00:03.823Z,5.32
2022-10-09T03:02:33.209Z,5.57
2022-10-09T03:05:01.314Z,6.03
2022-10-09T03:07:29.198Z,5.55
2022-10-09T03:09:58.344Z,6.72
2022-10-09T03:12:27.133Z,5.47
2022-10-09T03:14:55.099Z,5.95
2022-10-09T03:17:23.030Z,5.70
2022-10-09T03:19:52.422Z,5.53
2022-10-09T03:22:20.318Z,5.55
2022-10-09T03:24:48.235Z,6.70
2022-10-09T03:27:16.191Z,6.55
2022-10-09T03:29:44.084Z,6.30
2022-10-09T03:32:12.128Z,6.03
2022-10-09T03:34:40.097Z,5.78
2022-10-09T03:37:09.345Z,6.32
2022-10-09T03:39:37.261Z,6.45
2022-10-09T03:42:05.382Z,6.45
2022-10-09T03:44:33.286Z,6.45
2022-10-09T03:47:01.178Z,6.30
2022-10-09T03:49:29.048Z,6.72
2022-10-09T03:51:57.008Z,6.35
2022-10-09T03:54:26.739Z,6.32
2022-10-09T03:56:54.786Z,5.93
2022-10-09T03:59:22.702Z,6.13
2022-10-09T04:01:50.647Z,5.72
2022-10-09T04:04:18.613Z,5.82
2022-10-09T04:06:46.557Z,5.70
2022-10-09T04:09:14.484Z,5.57
2022-10-09T04:11:43.763Z,5.90
2022-10-09T04:14:11.814Z,6.20
2022-10-09T04:16:39.786Z,6.00
2022-10-09T04:19:07.792Z,5.82
2022-10-09T04:21:35.864Z,5.15
2022-10-09T04:24:03.843Z,6.00
2022-10-09T04:26:31.799Z,5.75
2022-10-09T04:29:01.089Z,5.95
2022-10-09T04:31:29.031Z,5.80
2022-10-09T04:33:57.243Z,5.95
2022-10-09T04:36:25.313Z,6.00
2022-10-09T04:38:53.681Z,5.57
2022-10-09T04:41:21.736Z,5.85
2022-10-09T04:43:49.775Z,5.60
2022-10-09T04:46:19.162Z,6.10
2022-10-09T04:48:48.063Z,5.88
2022-10-09T04:51:17.106Z,5.32
2022-10-09T04:53:45.641Z,5.83
2022-10-09T04:56:15.078Z,5.85
2022-10-09T04:58:43.462Z,5.18
2022-10-09T05:01:13.715Z,5.38
2022-10-09T05:03:43.164Z,5.30
2022-10-09T05:06:13.118Z,6.32
2022-10-09T05:08:42.372Z,5.22
2022-10-09T05:11:13.153Z,5.55
2022-10-09T05:13:43.256Z,5.50
2022-10-09T05:16:14.581Z,5.47
2022-10-09T05:18:44.701Z,5.47
2022-10-09T05:23:40.659Z,4.75
2022-10-09T05:26:10.741Z,5.22
2022-10-09T05:28:38.806Z,5.55
2022-10-09T05:31:07.997Z,5.20
2022-10-09T05:33:36.858Z,5.20
2022-10-09T05:36:07.550Z,4.85
2022-10-09T05:38:35.638Z,4.80
2022-10-09T05:41:05.262Z,4.88
2022-10-09T05:43:34.718Z,4.38
2022-10-09T05:46:07.610Z,4.93
2022-10-09T05:48:35.873Z,5.30
2022-10-09T05:51:10.387Z,4.90
2022-10-09T05:53:38.465Z,4.65
2022-10-09T05:56:14.409Z,4.93
2022-10-09T05:58:42.844Z,4.50
2022-10-09T06:01:11.389Z,4.80
2022-10-09T06:03:41.085Z,4.68
2022-10-09T06:06:10.698Z,4.68
2022-10-09T06:08:39.433Z,4.40
2022-10-09T06:11:12.698Z,4.40
2022-10-09T06:13:40.647Z,4.47
2022-10-09T06:16:11.490Z,3.47
2022-10-09T06:18:39.802Z,4.38
2022-10-09T06:21:08.110Z,4.40
2022-10-09T06:23:37.393Z,4.40
2022-10-09T06:26:07.376Z,4.75
2022-10-09T06:28:36.049Z,4.28
2022-10-09T06:31:08.809Z,3.88
2022-10-09T06:33:38.358Z,4.32
2022-10-09T06:36:10.314Z,4.68
2022-10-09T06:38:41.202Z,4.30
2022-10-09T06:41:11.075Z,4.40
2022-10-09T06:43:39.108Z,4.30
2022-10-09T06:46:09.799Z,3.85
2022-10-09T06:48:38.987Z,3.63
2022-10-09T06:51:08.728Z,4.13
2022-10-09T06:53:37.808Z,4.45
2022-10-09T06:56:07.328Z,4.20
2022-10-09T06:58:35.420Z,4.35
2022-10-09T07:01:05.629Z,4.68
2022-10-09T07:03:33.885Z,5.68
2022-10-09T07:06:10.172Z,5.60
2022-10-09T07:08:38.708Z,6.05
2022-10-09T07:11:12.866Z,5.97
2022-10-09T07:13:41.457Z,5.70
2022-10-09T07:16:11.232Z,6.00
2022-10-09T07:18:39.702Z,6.00
2022-10-09T07:21:09.699Z,6.53
2022-10-09T07:26:13.175Z,5.72
2022-10-09T07:28:42.544Z,6.35
2022-10-09T07:31:13.093Z,6.68
2022-10-09T07:33:41.688Z,6.50
2022-10-09T07:36:11.412Z,5.45
2022-10-09T07:38:39.524Z,6.40
2022-10-09T07:41:10.168Z,6.60
2022-10-09T07:43:41.233Z,6.80
2022-10-09T07:46:12.782Z,7.10
2022-10-09T07:48:41.142Z,10.00
2022-10-09T07:51:10.740Z,7.97
2022-10-09T07:53:39.474Z,6.90
2022-10-09T07:56:08.602Z,6.55
2022-10-09T07:58:36.588Z,6.00
2022-10-09T08:01:07.145Z,6.22
2022-10-09T08:03:35.729Z,6.30
2022-10-09T08:06:03.909Z,6.45
2022-10-09T08:08:32.165Z,7.28
2022-10-09T08:11:00.725Z,6.80
2022-10-09T08:13:28.707Z,6.60
2022-10-09T08:15:59.712Z,6.20
2022-10-09T08:18:29.460Z,6.40
2022-10-09T08:20:59.045Z,6.63
2022-10-09T08:23:27.357Z,6.43
2022-10-09T08:25:55.897Z,6.38
2022-10-09T08:28:24.431Z,5.85
2022-10-09T08:30:52.669Z,5.78
2022-10-09T08:33:22.178Z,6.30
2022-10-09T08:35:51.873Z,5.88
2022-10-09T08:38:44.958Z,6.80
2022-10-09T08:41:12.644Z,6.30
2022-10-09T08:43:43.541Z,6.68
2022-10-09T08:46:20.947Z,7.10
2022-10-09T08:48:50.298Z,6.20
2022-10-09T08:51:26.548Z,5.93
2022-10-09T08:54:02.649Z,6.13
2022-10-09T08:56:31.397Z,5.97
2022-10-09T08:58:59.382Z,5.72
2022-10-09T09:01:35.777Z,5.38
2022-10-09T09:04:35.064Z,5.30
2022-10-09T09:07:12.377Z,5.38
2022-10-09T09:09:49.742Z,5.50
2022-10-09T09:12:28.018Z,4.80
2022-10-09T09:15:14.333Z,2.47
2022-10-09T09:17:49.567Z,2.40
2022-10-09T09:20:24.366Z,3.40
2022-10-09T09:22:53.956Z,3.10
2022-10-09T09:25:25.594Z,2.42
2022-10-09T09:27:55.754Z,1.38
2022-10-09T09:30:29.194Z,1.17
2022-10-09T09:33:02.781Z,1.13
2022-10-09T09:35:37.130Z,1.08
2022-10-09T09:38:06.477Z,1.42
2022-10-09T09:40:37.591Z,1.55
2022-10-09T09:43:15.867Z,1.77
2022-10-09T09:45:44.859Z,1.50
2022-10-09T09:48:16.710Z,1.25
2022-10-09T09:50:52.916Z,1.80
2022-10-09T09:53:32.309Z,1.10
2022-10-09T09:56:00.401Z,1.65
2022-10-09T09:58:34.511Z,1.20
2022-10-09T10:01:04.314Z,1.00
2022-10-09T10:03:33.529Z,1.08
2022-10-09T10:06:01.860Z,0.87
2022-10-09T10:08:32.945Z,1.30
2022-10-09T10:11:02.749Z,1.40
2022-10-09T10:13:35.797Z,0.90
2022-10-09T10:16:04.405Z,0.90
2022-10-09T10:18:39.744Z,1.08
2022-10-09T10:21:13.188Z,1.00
2022-10-09T10:23:45.279Z,1.00
2022-10-09T10:26:23.661Z,1.30
2022-10-09T10:28:55.711Z,1.20
2022-10-09T10:31:37.031Z,0.77
2022-10-09T10:34:08.625Z,1.10
2022-10-09T10:36:38.253Z,1.20
2022-10-09T10:39:14.454Z,0.90
2022-10-09T10:41:47.841Z,1.17
2022-10-09T10:44:23.016Z,0.98
2022-10-09T10:46:55.988Z,0.95
2022-10-09T10:49:24.525Z,0.90
2022-10-09T10:52:04.517Z,0.95
2022-10-09T10:54:40.076Z,1.20
2022-10-09T10:57:15.083Z,1.00
2022-10-09T10:59:51.294Z,1.30
2022-10-09T11:03:05.072Z,1.00
2022-10-09T11:05:41.396Z,1.00
2022-10-09T11:08:29.988Z,0.90
2022-10-09T11:11:04.298Z,1.08
2022-10-09T11:13:35.918Z,1.33
2022-10-09T11:16:18.076Z,1.05
2022-10-09T11:18:58.186Z,1.40
2022-10-09T11:21:44.542Z,0.90
2022-10-09T11:24:48.761Z,0.90
2022-10-09T11:27:25.111Z,0.90
2022-10-09T11:30:04.884Z,1.10
2022-10-09T11:35:07.865Z,0.80
2022-10-09T11:37:39.612Z,1.05
2022-10-09T11:40:16.329Z,1.00
2022-10-09T11:42:49.827Z,1.08
2022-10-09T11:45:27.265Z,0.90
2022-10-09T11:48:04.105Z,0.98
2022-10-09T11:50:43.548Z,0.77
2022-10-09T11:53:14.599Z,0.70
2022-10-09T11:55:42.804Z,0.70
2022-10-09T11:58:22.651Z,1.10
2022-10-09T12:03:30.164Z,0.90
2022-10-09T12:06:08.466Z,0.80
2022-10-09T12:08:38.394Z,0.70
2022-10-09T12:11:15.839Z,0.77
2022-10-09T12:13:54.404Z,1.08
2022-10-09T12:16:35.958Z,0.70
2022-10-09T12:19:06.691Z,0.85
2022-10-09T12:21:39.847Z,0.65
2022-10-09T12:24:14.625Z,0.90
2022-10-09T12:26:42.767Z,1.08
2022-10-09T12:29:21.178Z,0.80
2022-10-09T12:31:52.306Z,0.77
2022-10-09T12:34:24.178Z,0.75
2022-10-09T12:36:52.252Z,0.55
2022-10-09T12:39:23.009Z,0.90
2022-10-09T12:41:55.758Z,0.80
2022-10-09T12:44:32.499Z,0.77
2022-10-09T12:47:03.900Z,0.90
2022-10-09T12:49:32.633Z,1.02
2022-10-09T12:52:01.915Z,0.70
2022-10-09T12:54:32.295Z,1.00
2022-10-09T12:57:01.842Z,0.70
2022-10-09T12:59:31.425Z,0.80
2022-10-09T13:02:00.948Z,0.77
2022-10-09T13:09:30.345Z,0.90
2022-10-09T13:12:01.663Z,0.90
2022-10-09T13:14:36.958Z,0.82
2022-10-09T13:17:05.083Z,1.00
2022-10-09T13:19:35.392Z,0.88
2022-10-09T13:22:19.049Z,0.70
2022-10-09T13:24:47.206Z,1.23
2022-10-09T13:27:15.685Z,0.57
2022-10-09T13:29:45.283Z,0.80
2022-10-09T13:34:41.722Z,0.80
2022-10-09T13:37:11.763Z,0.60
2022-10-09T13:39:39.722Z,0.75
2022-10-09T13:42:07.803Z,0.70
2022-10-09T13:44:35.741Z,0.80
2022-10-09T13:47:05.099Z,1.08
2022-10-09T13:49:32.998Z,0.80
2022-10-09T13:52:01.152Z,0.90
2022-10-09T13:54:29.188Z,1.40
2022-10-09T13:56:57.098Z,1.10
2022-10-09T13:59:25.336Z,1.08
2022-10-09T14:01:53.634Z,1.10
2022-10-09T14:04:23.063Z,1.13
2022-10-09T14:06:51.128Z,0.85
2022-10-09T14:09:19.152Z,0.80
2022-10-09T14:11:47.096Z,0.80
2022-10-09T14:14:15.211Z,0.90
2022-10-09T14:16:43.148Z,0.90
2022-10-09T14:19:12.424Z,0.93
2022-10-09T14:21:41.723Z,0.90
2022-10-09T14:24:10.126Z,1.00
2022-10-09T14:26:38.873Z,0.75
2022-10-09T14:29:06.898Z,0.90
2022-10-09T14:31:34.824Z,0.85
2022-10-09T14:34:02.830Z,0.85
2022-10-09T14:36:31.626Z,0.90
2022-10-09T14:39:01.758Z,1.00
2022-10-09T14:44:03.735Z,0.85
2022-10-09T14:46:33.847Z,0.80
2022-10-09T14:49:07.353Z,0.80
2022-10-09T14:51:37.558Z,0.60
2022-10-09T14:54:08.166Z,0.70
2022-10-09T14:56:36.795Z,0.50
2022-10-09T14:59:06.009Z,1.00
2022-10-09T15:01:34.874Z,0.80
2022-10-09T15:04:03.422Z,0.60
2022-10-09T15:07:11.431Z,0.80
2022-10-09T15:09:40.839Z,0.88
2022-10-09T15:12:08.865Z,0.70
2022-10-09T15:14:36.799Z,0.60
2022-10-09T15:17:04.777Z,0.70
2022-10-09T15:19:32.849Z,0.60
2022-10-09T15:22:00.960Z,0.60
2022-10-09T15:24:29.021Z,0.80
2022-10-09T15:26:58.416Z,0.82
2022-10-09T15:29:26.437Z,0.50
2022-10-09T15:31:54.447Z,0.95
2022-10-09T15:34:22.533Z,1.05
2022-10-09T15:36:51.096Z,0.80
2022-10-09T15:39:19.080Z,0.90
2022-10-09T15:41:47.706Z,0.70
2022-10-09T15:44:20.787Z,0.73
2022-10-09T15:46:50.340Z,0.70
2022-10-09T15:49:18.328Z,0.60
2022-10-09T15:51:46.302Z,0.52
2022-10-09T15:54:15.388Z,0.88
2022-10-09T15:56:43.378Z,0.82
2022-10-09T15:59:13.620Z,0.60
2022-10-09T16:01:42.973Z,0.90
2022-10-09T16:04:11.081Z,0.55
2022-10-09T16:06:39.228Z,0.63
2022-10-09T16:09:07.202Z,1.10
2022-10-09T16:11:35.170Z,0.95
2022-10-09T16:14:04.320Z,0.80
2022-10-09T16:16:32.344Z,1.30
2022-10-09T16:19:04.067Z,1.27
2022-10-09T16:21:32.467Z,1.30
2022-10-09T16:24:01.145Z,1.30
2022-10-09T16:26:30.708Z,1.90
2022-10-09T16:29:00.436Z,2.05
2022-10-09T16:31:31.454Z,2.03
2022-10-09T16:34:01.276Z,2.03
2022-10-09T16:36:29.848Z,1.50
2022-10-09T16:38:58.254Z,1.52
2022-10-09T16:41:26.405Z,1.20
2022-10-09T16:43:56.119Z,1.48
2022-10-09T16:46:26.032Z,1.35
2022-10-09T16:51:25.563Z,0.90
2022-10-09T16:53:54.605Z,0.90
2022-10-09T16:56:25.840Z,1.00
2022-10-09T16:58:56.280Z,1.23
2022-10-09T17:01:24.945Z,1.00
2022-10-09T17:03:54.979Z,0.98
2022-10-09T17:06:24.958Z,1.40
2022-10-09T17:11:23.090Z,0.80
2022-10-09T17:13:51.108Z,1.30
2022-10-09T17:16:23.787Z,1.10
2022-10-09T17:18:52.998Z,1.23
2022-10-09T17:21:21.173Z,1.10
2022-10-09T17:23:54.330Z,1.73
2022-10-09T17:26:23.821Z,1.33
2022-10-09T17:28:53.237Z,1.52
2022-10-09T17:31:23.745Z,1.80
2022-10-09T17:33:55.300Z,1.30
2022-10-09T17:36:24.896Z,1.40
2022-10-09T17:38:54.520Z,1.58
2022-10-09T17:41:24.535Z,1.45
2022-10-09T17:46:21.498Z,1.70
2022-10-09T17:48:53.197Z,1.70
2022-10-09T17:51:23.982Z,1.45
2022-10-09T17:53:52.398Z,1.90
2022-10-09T17:56:21.768Z,1.50
2022-10-09T17:58:50.145Z,1.30
2022-10-09T18:01:18.973Z,1.30
2022-10-09T18:03:47.018Z,1.20
2022-10-09T18:06:17.909Z,1.40
2022-10-09T18:08:46.475Z,1.05
2022-10-09T18:11:17.067Z,2.22
2022-10-09T18:13:47.206Z,1.13
2022-10-09T18:16:17.390Z,1.08
2022-10-09T18:18:45.860Z,1.20
2022-10-09T18:21:17.670Z,0.93
2022-10-09T18:23:46.368Z,1.20
2022-10-09T18:26:15.926Z,1.15
2022-10-09T18:28:47.457Z,1.10
2022-10-09T18:31:19.951Z,1.40
2022-10-09T18:33:48.207Z,1.20
2022-10-09T18:36:19.595Z,1.30
2022-10-09T18:38:48.732Z,1.30
2022-10-09T18:41:17.141Z,1.55
2022-10-09T18:43:45.083Z,1.50
2022-10-09T18:46:13.178Z,1.50
2022-10-09T18:48:42.680Z,1.27
2022-10-09T18:51:14.540Z,1.58
2022-10-09T18:53:44.518Z,2.20
2022-10-09T18:58:41.822Z,1.55
2022-10-09T19:01:10.126Z,1.70
2022-10-09T19:03:38.169Z,1.70
2022-10-09T19:06:08.027Z,1.88
2022-10-09T19:08:35.932Z,1.67
2022-10-09T19:11:03.782Z,2.10
2022-10-09T19:13:31.603Z,2.00
2022-10-09T19:15:59.972Z,2.20
2022-10-09T19:18:28.305Z,1.85
2022-10-09T19:20:56.235Z,2.28
2022-10-09T19:23:25.503Z,2.00
2022-10-09T19:25:55.524Z,2.00
2022-10-09T19:30:52.571Z,1.92
2022-10-09T19:33:20.598Z,2.25
2022-10-09T19:35:49.415Z,2.50
2022-10-09T19:38:18.472Z,2.45
2022-10-09T19:40:48.126Z,3.10
2022-10-09T19:43:16.918Z,3.28
2022-10-09T19:45:45.162Z,2.75
2022-10-09T19:48:13.120Z,2.80
2022-10-09T19:50:41.896Z,2.60
2022-10-09T19:53:09.984Z,2.90
2022-10-09T19:55:38.389Z,3.00
2022-10-09T19:58:07.762Z,3.03
2022-10-09T20:00:35.670Z,2.92
2022-10-09T20:03:03.526Z,2.70
2022-10-09T20:05:31.352Z,3.25
2022-10-09T20:07:59.258Z,3.05
2022-10-09T20:10:28.476Z,2.78
2022-10-09T20:12:56.421Z,3.10
2022-10-09T20:15:25.802Z,2.95
2022-10-09T20:17:54.855Z,3.38
2022-10-09T20:20:23.010Z,3.27
2022-10-09T20:22:51.182Z,3.60
2022-10-09T20:25:19.552Z,3.33
2022-10-09T20:27:47.510Z,3.50
2022-10-09T20:30:16.874Z,3.70
2022-10-09T20:32:46.163Z,3.45
2022-10-09T20:35:14.151Z,3.60
2022-10-09T20:37:42.048Z,3.60
2022-10-09T20:40:10.378Z,4.03
2022-10-09T20:42:38.272Z,3.40
2022-10-09T20:45:07.179Z,2.75
2022-10-09T20:47:35.571Z,2.63
2022-10-09T20:50:05.230Z,3.13
2022-10-09T20:52:33.123Z,3.55
2022-10-09T20:55:01.096Z,3.92
2022-10-09T20:57:28.979Z,3.63
2022-10-09T20:59:56.904Z,3.70
2022-10-09T21:02:25.023Z,3.50
2022-10-09T21:04:52.975Z,3.75
2022-10-09T21:07:22.373Z,3.78
2022-10-09T21:09:50.346Z,3.30
2022-10-09T21:12:18.523Z,3.53
2022-10-09T21:14:46.562Z,4.03
2022-10-09T21:17:14.492Z,3.42
2022-10-09T21:19:42.509Z,3.60
2022-10-09T21:22:10.496Z,3.78
2022-10-09T21:24:39.836Z,3.75
2022-10-09T21:27:07.796Z,3.38
2022-10-09T21:29:35.844Z,3.65
2022-10-09T21:32:03.857Z,3.80
2022-10-09T21:34:31.792Z,4.10
2022-10-09T21:37:20.379Z,4.30
2022-10-09T21:39:49.643Z,3.47
2022-10-09T21:42:17.723Z,3.65
2022-10-09T21:44:45.746Z,3.38
2022-10-09T21:47:17.690Z,3.95
2022-10-09T21:49:45.755Z,2.03
2022-10-09T21:52:13.834Z,1.55
2022-10-09T21:54:41.886Z,1.80
2022-10-09T21:57:11.320Z,2.35
2022-10-09T21:59:39.390Z,1.52
2022-10-09T22:02:07.425Z,2.30
2022-10-09T22:04:35.659Z,1.80
2022-10-09T22:07:03.637Z,2.10
2022-10-09T22:09:31.642Z,1.33
2022-10-09T22:12:00.355Z,1.15
2022-10-09T22:14:29.761Z,1.25
2022-10-09T22:16:57.744Z,1.08
2022-10-09T22:19:25.743Z,1.10
2022-10-09T22:21:53.794Z,1.13
2022-10-09T22:24:23.866Z,1.05
2022-10-09T22:26:56.794Z,1.10
2022-10-09T22:29:24.962Z,1.23
2022-10-09T22:31:54.577Z,0.90
2022-10-09T22:34:22.653Z,1.05
2022-10-09T22:36:50.661Z,1.05
2022-10-09T22:39:18.691Z,0.77
2022-10-09T22:41:46.627Z,1.10
2022-10-09T22:44:14.553Z,0.90
2022-10-09T22:46:44.497Z,1.08
2022-10-09T22:51:42.792Z,0.80
2022-10-09T22:54:12.522Z,1.40
2022-10-09T22:56:42.727Z,0.85
2022-10-09T22:59:13.211Z,1.23
2022-10-09T23:01:43.351Z,0.90
2022-10-09T23:04:14.109Z,1.52
2022-10-09T23:06:42.723Z,1.08
2022-10-09T23:09:13.013Z,1.02
2022-10-09T23:11:41.097Z,0.98
2022-10-09T23:14:09.559Z,1.42
2022-10-09T23:16:37.537Z,1.00
2022-10-09T23:19:06.961Z,1.23
2022-10-09T23:21:37.715Z,0.80
2022-10-09T23:24:06.140Z,0.90
2022-10-09T23:26:35.235Z,1.00
2022-10-09T23:29:06.193Z,1.20
2022-10-09T23:31:34.457Z,0.98
2022-10-09T23:34:03.682Z,1.05
2022-10-09T23:36:31.706Z,1.00
2022-10-09T23:39:02.860Z,0.95
2022-10-09T23:41:31.057Z,0.93
2022-10-09T23:43:59.137Z,1.05
2022-10-09T23:46:28.712Z,1.23
2022-10-09T23:48:56.734Z,0.88
2022-10-09T23:51:26.458Z,1.20
2022-10-09T23:53:54.620Z,1.00
2022-10-09T23:56:26.370Z,1.10
2022-10-09T23:58:55.456Z,1.27
